Time;durP1;ratioP1;P1;durP2;ratioP2;P2;SDS_P1;SDS_P2;PMS_P1;PMS_P2;Temp;Humidity;BMP_temperature;BMP_pressure;BME280_temperature;BME280_humidity;BME280_pressure;Samples;Min_cycle;Max_cycle;Signal;HPM_P1;HPM_P2
2022/10/30 00:01:51;;;;;;;20.30;10.70;;;;;;;14.41;100.00;101510.56;5094651;28;20322;-73
2022/10/30 00:04:16;;;;;;;23.70;10.00;;;;;;;14.47;100.00;101513.25;5113521;28;20024;-73
2022/10/30 00:06:42;;;;;;;25.95;11.70;;;;;;;14.42;100.00;101512.22;5095259;28;20295;-73
2022/10/30 00:09:07;;;;;;;21.30;10.33;;;;;;;14.45;100.00;101511.78;5112654;28;20408;-73
2022/10/30 00:11:32;;;;;;;27.77;10.97;;;;;;;14.45;100.00;101512.59;5095177;28;20276;-73
2022/10/30 00:13:57;;;;;;;23.37;10.53;;;;;;;14.43;100.00;101517.41;5112410;28;20289;-73
2022/10/30 00:16:23;;;;;;;30.05;10.73;;;;;;;14.37;100.00;101520.94;5113334;28;20353;-73
2022/10/30 00:18:48;;;;;;;23.52;10.57;;;;;;;14.31;100.00;101513.78;5113258;28;20372;-73
2022/10/30 00:21:14;;;;;;;24.37;9.90;;;;;;;14.33;100.00;101522.44;5094555;28;20035;-73
2022/10/30 00:23:51;;;;;;;27.30;10.93;;;;;;;14.31;100.00;101519.16;5111912;28;20619;-73
2022/10/30 00:26:17;;;;;;;36.22;11.63;;;;;;;14.27;100.00;101521.47;5112292;28;20048;-73
2022/10/30 00:28:43;;;;;;;31.13;10.63;;;;;;;14.22;100.00;101507.03;5113098;28;20027;-74
2022/10/30 00:31:09;;;;;;;22.80;10.30;;;;;;;14.19;100.00;101513.69;5112160;28;20529;-73
2022/10/30 00:36:56;;;;;;;21.38;10.43;;;;;;;14.05;100.00;101516.69;5112838;28;20069;-73
2022/10/30 00:39:21;;;;;;;27.33;11.65;;;;;;;14.04;100.00;101505.13;5094654;28;20036;-73
2022/10/30 00:41:47;;;;;;;21.90;10.90;;;;;;;13.99;100.00;101504.16;5112961;28;20027;-73
2022/10/30 00:44:35;;;;;;;26.70;13.00;;;;;;;13.95;100.00;101501.91;5111919;28;20317;-73
2022/10/30 00:47:04;;;;;;;18.50;9.98;;;;;;;13.89;100.00;101499.28;5112812;28;20023;-74
2022/10/30 00:49:35;;;;;;;24.50;11.38;;;;;;;13.93;100.00;101506.69;5112045;28;20127;-74
2022/10/30 00:52:04;;;;;;;23.15;10.73;;;;;;;13.89;100.00;101507.34;5094454;28;20031;-74
2022/10/30 00:54:31;;;;;;;31.02;10.90;;;;;;;13.88;100.00;101511.91;5111907;28;20129;-74
2022/10/30 01:00:21;;;;;;;24.48;12.10;;;;;;;13.81;100.00;101503.03;5112898;28;20087;-73
2022/10/30 01:06:10;;;;;;;25.10;10.82;;;;;;;13.74;100.00;101507.66;5111981;28;20510;-73
2022/10/30 01:08:37;;;;;;;18.95;10.43;;;;;;;13.72;100.00;101506.22;5112391;28;20040;-73
2022/10/30 01:11:04;;;;;;;17.60;10.25;;;;;;;13.76;100.00;101510.94;5112420;28;20039;-73
2022/10/30 01:13:32;;;;;;;19.38;10.02;;;;;;;13.72;100.00;101506.22;5093616;28;20482;-73
2022/10/30 01:16:21;;;;;;;22.30;10.82;;;;;;;13.70;100.00;101511.00;5112417;28;20403;-73
2022/10/30 01:19:08;;;;;;;26.15;11.52;;;;;;;13.64;100.00;101507.31;5111621;28;20043;-73
2022/10/30 01:21:39;;;;;;;19.38;10.48;;;;;;;13.58;100.00;101510.84;5094243;28;20032;-74
2022/10/30 01:24:26;;;;;;;24.38;11.35;;;;;;;13.53;100.00;101514.19;5111492;28;20483;-73
2022/10/30 01:27:23;;;;;;;29.48;11.13;;;;;;;13.50;100.00;101517.31;5112116;28;20023;-73
2022/10/30 01:30:04;;;;;;;19.48;10.23;;;;;;;13.42;100.00;101514.91;5092948;28;20428;-73
2022/10/30 01:33:19;;;;;;;16.38;10.15;;;;;;;13.41;100.00;101513.25;5093773;28;20028;-72
2022/10/30 01:36:13;;;;;;;26.02;10.95;;;;;;;13.41;100.00;101517.81;5115222;28;20528;-73
2022/10/30 01:38:44;;;;;;;24.20;10.43;;;;;;;13.37;100.00;101513.91;5097484;28;20039;-74
2022/10/30 01:44:32;;;;;;;25.17;10.80;;;;;;;13.28;100.00;101519.50;5116312;28;20046;-73
2022/10/30 01:47:27;;;;;;;19.48;10.45;;;;;;;13.17;100.00;101513.97;5115857;28;20479;-72
2022/10/30 01:50:37;;;;;;;15.77;9.30;;;;;;;13.19;100.00;101523.50;5114939;28;20047;-72
2022/10/30 01:53:32;;;;;;;22.40;11.30;;;;;;;13.10;100.00;101516.69;5115723;28;20042;-73
2022/10/30 01:56:27;;;;;;;22.35;10.48;;;;;;;13.07;100.00;101514.44;5096905;28;20036;-73
2022/10/30 01:59:07;;;;;;;21.63;10.13;;;;;;;13.11;100.00;101525.56;5115694;28;20111;-72
2022/10/30 02:01:35;;;;;;;20.13;9.70;;;;;;;13.10;100.00;101532.00;5114874;28;20534;-73
2022/10/30 02:04:01;;;;;;;21.23;9.85;;;;;;;13.09;100.00;101528.47;5115573;28;20106;-73
2022/10/30 02:09:52;;;;;;;18.85;9.73;;;;;;;12.95;100.00;101529.56;5115455;28;20104;-73
2022/10/30 02:15:41;;;;;;;22.17;9.50;;;;;;;12.89;100.00;101536.59;5115722;28;20141;-72
2022/10/30 02:21:29;;;;;;;23.73;12.02;;;;;;;12.85;100.00;101523.81;5115549;28;20047;-73
2022/10/30 02:23:54;;;;;;;21.98;10.65;;;;;;;12.81;100.00;101519.91;5096934;28;20109;-73
2022/10/30 02:29:41;;;;;;;24.90;11.82;;;;;;;12.78;100.00;101531.91;5115393;28;20300;-72
2022/10/30 02:32:06;;;;;;;18.67;9.87;;;;;;;12.72;100.00;101530.03;5114235;28;20063;-72
2022/10/30 02:37:53;;;;;;;25.77;10.73;;;;;;;12.79;100.00;101536.25;5115055;28;20489;-72
2022/10/30 02:40:18;;;;;;;19.02;10.98;;;;;;;12.77;100.00;101532.94;5114957;28;20058;-71
2022/10/30 02:42:44;;;;;;;27.23;12.30;;;;;;;12.75;100.00;101540.38;5113535;28;20046;-71
2022/10/30 02:45:10;;;;;;;24.43;11.30;;;;;;;12.78;100.00;101545.31;5113122;28;20289;-71
2022/10/30 02:47:35;;;;;;;24.17;11.75;;;;;;;12.80;100.00;101539.75;5096300;28;20796;-71
2022/10/30 02:50:01;;;;;;;24.60;11.63;;;;;;;12.86;100.00;101546.94;5096050;28;20040;-71
2022/10/30 02:52:26;;;;;;;21.02;10.63;;;;;;;12.83;100.00;101540.13;5114716;28;20350;-72
2022/10/30 02:54:51;;;;;;;35.60;12.10;;;;;;;12.79;100.00;101535.41;5096334;28;20034;-72
2022/10/30 02:57:16;;;;;;;24.20;11.00;;;;;;;12.71;100.00;101528.41;5113818;28;20382;-72
2022/10/30 02:59:42;;;;;;;21.30;11.23;;;;;;;12.71;100.00;101537.28;5114606;28;20295;-72
2022/10/30 03:02:07;;;;;;;22.23;10.67;;;;;;;12.78;100.00;101542.63;5096002;28;20281;-72
2022/10/30 03:04:32;;;;;;;24.15;11.45;;;;;;;12.79;100.00;101540.78;5113341;28;20270;-71
2022/10/30 03:06:57;;;;;;;22.38;11.23;;;;;;;12.75;100.00;101528.81;5114530;28;20124;-72
2022/10/30 03:12:44;;;;;;;21.58;10.70;;;;;;;12.70;100.00;101530.25;5114481;28;20276;-72
2022/10/30 03:15:10;;;;;;;26.58;12.07;;;;;;;12.73;100.00;101539.78;5113577;28;20401;-72
2022/10/30 03:17:36;;;;;;;20.07;11.40;;;;;;;12.70;100.00;101519.53;5114347;28;20468;-71
2022/10/30 03:20:01;;;;;;;19.92;11.05;;;;;;;12.78;100.00;101534.59;5113405;28;20281;-72
2022/10/30 03:25:52;;;;;;;20.40;10.75;;;;;;;12.76;100.00;101533.16;5113722;28;20050;-72
2022/10/30 03:28:17;;;;;;;21.00;11.52;;;;;;;12.73;100.00;101523.66;5114156;28;20050;-72
2022/10/30 03:30:42;;;;;;;24.87;11.10;;;;;;;12.68;100.00;101526.97;5114131;28;20028;-72
2022/10/30 03:33:07;;;;;;;22.40;10.63;;;;;;;12.70;100.00;101524.06;5113319;28;20366;-72
2022/10/30 03:35:34;;;;;;;19.63;11.07;;;;;;;12.68;100.00;101521.59;5114116;28;20281;-72
2022/10/30 03:38:00;;;;;;;23.77;11.15;;;;;;;12.69;100.00;101530.47;5113436;28;20281;-72
2022/10/30 03:40:25;;;;;;;22.60;11.33;;;;;;;12.69;100.00;101528.59;5113710;28;20031;-74
2022/10/30 03:42:50;;;;;;;20.93;11.73;;;;;;;12.73;100.00;101521.00;5114051;28;20326;-72
2022/10/30 03:45:15;;;;;;;24.37;11.07;;;;;;;12.78;100.00;101526.53;5094847;28;20304;-72
2022/10/30 03:47:41;;;;;;;23.80;10.70;;;;;;;12.78;100.00;101531.09;5095399;28;20427;-72
2022/10/30 03:50:06;;;;;;;23.33;11.25;;;;;;;12.77;100.00;101537.50;5113119;28;20032;-72
2022/10/30 03:52:32;;;;;;;29.45;12.50;;;;;;;12.75;100.00;101542.25;5113541;28;20050;-72
2022/10/30 03:58:19;;;;;;;19.15;11.13;;;;;;;12.77;100.00;101541.00;5113658;28;20088;-72
2022/10/30 04:04:05;;;;;;;22.58;9.75;;;;;;;12.66;100.00;101539.75;5113798;28;20268;-72
2022/10/30 04:06:30;;;;;;;21.33;11.30;;;;;;;12.62;100.00;101538.53;5094940;28;20027;-73
2022/10/30 04:08:56;;;;;;;21.97;10.83;;;;;;;12.60;100.00;101542.47;5094498;28;20064;-72
2022/10/30 04:11:21;;;;;;;21.77;9.95;;;;;;;12.52;100.00;101537.34;5094707;28;20278;-72
2022/10/30 04:13:46;;;;;;;20.37;10.23;;;;;;;12.56;100.00;101549.28;5113094;28;20490;-72
2022/10/30 04:16:11;;;;;;;19.37;10.03;;;;;;;12.49;100.00;101543.94;5112199;28;20383;-72
2022/10/30 04:18:37;;;;;;;16.03;9.13;;;;;;;12.47;100.00;101534.47;5113089;28;20285;-73
2022/10/30 04:21:02;;;;;;;17.95;10.18;;;;;;;12.40;100.00;101540.63;5111177;28;20685;-74
2022/10/30 04:23:28;;;;;;;23.65;10.50;;;;;;;12.43;100.00;101550.13;5112866;28;20373;-72
2022/10/30 04:25:53;;;;;;;25.60;11.00;;;;;;;12.36;100.00;101536.72;5112931;28;20429;-72
2022/10/30 04:31:40;;;;;;;22.58;11.10;;;;;;;12.29;100.00;101540.47;5113688;28;20034;-72
2022/10/30 04:34:06;;;;;;;20.10;10.93;;;;;;;12.30;100.00;101542.94;5094456;28;20040;-72
2022/10/30 04:36:34;;;;;;;23.20;11.80;;;;;;;12.27;100.00;101542.53;5113150;28;20391;-72
2022/10/30 04:39:01;;;;;;;21.52;11.00;;;;;;;12.22;100.00;101536.97;5112481;28;20024;-72
2022/10/30 04:41:26;;;;;;;21.27;10.98;;;;;;;12.25;100.00;101539.22;5094695;28;20035;-72
2022/10/30 04:43:52;;;;;;;17.98;11.05;;;;;;;12.19;100.00;101529.34;5112908;28;20027;-72
2022/10/30 04:46:17;;;;;;;19.08;10.35;;;;;;;12.13;100.00;101522.09;5111957;28;20043;-72
2022/10/30 04:48:43;;;;;;;20.73;11.30;;;;;;;12.10;100.00;101518.00;5112960;28;20067;-71
2022/10/30 04:51:10;;;;;;;21.40;10.93;;;;;;;12.09;100.00;101509.13;5112887;28;20093;-73
2022/10/30 04:53:38;;;;;;;23.80;10.95;;;;;;;12.15;100.00;101503.97;5112609;28;20122;-72
2022/10/30 04:56:04;;;;;;;17.35;11.02;;;;;;;12.17;100.00;101509.97;5094441;28;20043;-71
2022/10/30 04:58:30;;;;;;;24.02;12.32;;;;;;;12.23;100.00;101509.13;5111985;28;20046;-72
2022/10/30 05:01:03;;;;;;;22.80;9.93;;;;;;;12.28;100.00;101512.81;5094551;28;20027;-72
2022/10/30 05:03:28;;;;;;;22.42;11.50;;;;;;;12.28;100.00;101503.94;5112365;28;20023;-72
2022/10/30 05:06:16;;;;;;;24.30;12.10;;;;;;;12.27;100.00;101518.41;5112184;28;20468;-72
2022/10/30 05:12:02;;;;;;;22.63;11.57;;;;;;;12.20;100.00;101506.88;5113127;28;20073;-72
2022/10/30 05:14:29;;;;;;;23.77;10.82;;;;;;;12.24;100.00;101508.09;5094106;28;20040;-72
2022/10/30 05:16:54;;;;;;;27.70;12.95;;;;;;;12.25;100.00;101515.09;5111640;28;20097;-72
2022/10/30 05:19:20;;;;;;;22.27;11.75;;;;;;;12.29;100.00;101510.97;5112554;28;20464;-72
2022/10/30 05:21:45;;;;;;;21.95;10.70;;;;;;;12.24;100.00;101513.44;5112280;28;20027;-72
2022/10/30 05:24:10;;;;;;;24.30;10.70;;;;;;;12.19;100.00;101510.56;5093744;28;20050;-72
2022/10/30 05:26:36;;;;;;;22.90;10.50;;;;;;;12.17;100.00;101512.66;5112407;28;20318;-72
2022/10/30 05:29:01;;;;;;;25.42;10.75;;;;;;;12.15;100.00;101517.38;5111565;28;20044;-72
2022/10/30 05:31:26;;;;;;;18.05;10.77;;;;;;;12.13;100.00;101528.28;5112273;28;20043;-73
2022/10/30 05:33:52;;;;;;;21.80;10.60;;;;;;;12.05;100.00;101529.34;5112254;28;20020;-72
2022/10/30 05:36:17;;;;;;;22.33;10.82;;;;;;;11.98;100.00;101527.69;5111437;28;20277;-72
2022/10/30 05:38:43;;;;;;;17.40;10.10;;;;;;;11.95;100.00;101541.50;5112260;28;20076;-73
2022/10/30 05:41:09;;;;;;;16.92;10.18;;;;;;;11.87;100.00;101531.81;5111404;28;20776;-73
2022/10/30 05:43:34;;;;;;;21.00;11.17;;;;;;;11.81;100.00;101529.94;5112255;28;20031;-72
2022/10/30 05:45:59;;;;;;;17.13;9.40;;;;;;;11.74;100.00;101521.06;5112085;28;20785;-72
2022/10/30 05:48:24;;;;;;;21.30;11.03;;;;;;;11.69;100.00;101521.66;5093231;28;20289;-72
2022/10/30 05:50:50;;;;;;;21.25;10.55;;;;;;;11.66;100.00;101523.94;5111981;28;20282;-72
2022/10/30 05:53:15;;;;;;;17.73;9.97;;;;;;;11.58;100.00;101514.25;5111285;28;20066;-72
2022/10/30 05:55:40;;;;;;;18.17;9.67;;;;;;;11.56;100.00;101523.50;5111992;28;20265;-72
2022/10/30 05:58:06;;;;;;;18.53;10.20;;;;;;;11.52;100.00;101511.53;5110664;28;20292;-72
2022/10/30 06:00:35;;;;;;;20.63;10.90;;;;;;;11.53;100.00;101524.72;5110990;28;20304;-72
2022/10/30 06:03:09;;;;;;;17.90;10.35;;;;;;;11.48;100.00;101517.31;5093609;28;20447;-73
2022/10/30 06:05:35;;;;;;;19.05;11.02;;;;;;;11.46;100.00;101529.25;5093025;28;20050;-73
2022/10/30 06:08:03;;;;;;;22.48;10.48;;;;;;;11.41;100.00;101523.69;5111803;28;20039;-72
2022/10/30 06:10:28;;;;;;;32.65;12.02;;;;;;;11.36;100.00;101520.78;5093395;28;20032;-72
2022/10/30 06:13:02;;;;;;;19.63;10.85;;;;;;;11.35;100.00;101525.31;5111059;28;20358;-73
2022/10/30 06:15:29;;;;;;;20.52;9.40;;;;;;;11.22;100.00;101525.28;5111717;28;20035;-72
2022/10/30 06:17:55;;;;;;;16.52;9.50;;;;;;;11.14;100.00;101528.97;5092825;28;20430;-72
2022/10/30 06:20:22;;;;;;;15.93;9.27;;;;;;;11.08;100.00;101527.09;5113150;28;20028;-72
2022/10/30 06:23:03;;;;;;;21.20;10.82;;;;;;;11.06;100.00;101520.28;5096925;28;20042;-72
2022/10/30 06:25:30;;;;;;;18.20;11.65;;;;;;;11.07;100.00;101516.59;5100043;28;20086;-72
2022/10/30 06:31:17;;;;;;;21.10;10.77;;;;;;;10.99;100.00;101522.94;5115332;28;20045;-73
2022/10/30 06:33:42;;;;;;;20.95;10.70;;;;;;;10.86;100.00;101513.00;5096805;28;20122;-72
2022/10/30 06:36:08;;;;;;;31.05;12.60;;;;;;;10.88;100.00;101517.31;5096080;28;20046;-72
2022/10/30 06:38:33;;;;;;;22.90;11.70;;;;;;;10.85;100.00;101521.22;5114845;28;20024;-72
2022/10/30 06:40:58;;;;;;;25.90;12.47;;;;;;;10.81;100.00;101520.78;5114836;28;20028;-72
2022/10/30 06:43:24;;;;;;;22.17;11.23;;;;;;;10.82;100.00;101517.09;5114011;28;20472;-72
2022/10/30 06:45:49;;;;;;;30.95;13.20;;;;;;;10.80;100.00;101511.13;5114701;28;20269;-72
2022/10/30 06:48:14;;;;;;;31.23;13.53;;;;;;;10.90;100.00;101516.09;5114076;28;20172;-72
2022/10/30 06:54:01;;;;;;;20.83;11.60;;;;;;;11.09;100.00;101523.38;5115058;28;20073;-72
2022/10/30 06:56:26;;;;;;;20.00;11.75;;;;;;;11.12;100.00;101520.31;5107201;28;20073;-72
2022/10/30 06:58:52;;;;;;;20.27;10.80;;;;;;;11.26;100.00;101523.84;5114611;28;20027;-73
2022/10/30 07:01:17;;;;;;;23.10;12.63;;;;;;;11.36;100.00;101508.22;5095769;28;20280;-72
2022/10/30 07:03:42;;;;;;;25.00;13.43;;;;;;;11.50;100.00;101498.34;5114683;28;20272;-72
2022/10/30 07:09:29;;;;;;;21.23;11.77;;;;;;;11.70;100.00;101495.69;5114506;28;20277;-73
2022/10/30 07:11:54;;;;;;;24.42;13.05;;;;;;;11.70;100.00;101499.22;5114427;28;20032;-72
2022/10/30 07:17:41;;;;;;;23.25;11.45;;;;;;;11.98;100.00;101509.75;5114941;28;20050;-72
2022/10/30 07:20:07;;;;;;;16.23;10.40;;;;;;;12.05;100.00;101504.38;5113478;28;20039;-72
2022/10/30 07:22:33;;;;;;;21.63;10.45;;;;;;;12.20;100.00;101501.50;5095710;28;20777;-72
2022/10/30 07:24:58;;;;;;;14.43;10.00;;;;;;;12.43;100.00;101504.53;5113397;28;20185;-73
2022/10/30 07:27:23;;;;;;;17.03;10.87;;;;;;;12.68;100.00;101504.66;5114147;28;20304;-72
2022/10/30 07:29:48;;;;;;;18.73;10.90;;;;;;;12.91;100.00;101514.91;5095929;28;20329;-72
2022/10/30 07:32:14;;;;;;;19.03;10.53;;;;;;;12.97;100.00;101511.38;5112720;28;20296;-72
2022/10/30 07:34:39;;;;;;;22.60;12.33;;;;;;;12.99;100.00;101506.63;5114051;28;20280;-72
2022/10/30 07:37:04;;;;;;;26.17;11.77;;;;;;;12.99;100.00;101510.13;5098451;28;20318;-73
2022/10/30 07:39:29;;;;;;;17.13;10.57;;;;;;;13.05;100.00;101510.34;5114489;28;20288;-73
2022/10/30 07:41:55;;;;;;;24.00;11.17;;;;;;;13.14;100.00;101525.97;5114005;28;20303;-72
2022/10/30 07:44:20;;;;;;;32.43;11.90;;;;;;;13.20;100.00;101513.56;5112935;28;20288;-72
2022/10/30 07:46:45;;;;;;;21.63;11.33;;;;;;;13.24;100.00;101504.88;5113851;28;20640;-73
2022/10/30 07:49:10;;;;;;;18.77;10.40;;;;;;;13.40;100.00;101506.22;5113315;28;20265;-72
2022/10/30 07:51:36;;;;;;;21.27;12.00;;;;;;;13.53;100.00;101499.94;5113524;28;20282;-72
2022/10/30 07:57:22;;;;;;;21.00;11.50;;;;;;;13.83;100.00;101498.25;5113697;28;20264;-72
2022/10/30 07:59:48;;;;;;;22.13;11.77;;;;;;;13.86;100.00;101508.56;5113665;28;20032;-73
2022/10/30 08:02:13;;;;;;;23.77;13.37;;;;;;;13.94;100.00;101510.19;5094826;28;20072;-73
2022/10/30 08:04:38;;;;;;;21.63;13.07;;;;;;;13.99;100.00;101514.91;5113634;28;20630;-72
2022/10/30 08:07:04;;;;;;;24.42;13.35;;;;;;;14.07;100.00;101512.75;5113464;28;20285;-72
2022/10/30 08:09:29;;;;;;;24.45;13.57;;;;;;;14.15;100.00;101512.47;5094763;28;20403;-72
2022/10/30 08:11:54;;;;;;;24.07;11.97;;;;;;;14.25;100.00;101495.84;5113534;28;20267;-72
2022/10/30 08:14:19;;;;;;;21.83;12.80;;;;;;;14.45;100.00;101503.72;5094481;28;20654;-73
2022/10/30 08:16:45;;;;;;;21.80;12.85;;;;;;;14.61;100.00;101505.00;5095147;28;20036;-72
2022/10/30 08:19:10;;;;;;;22.38;12.95;;;;;;;14.51;100.00;101492.91;5095179;28;20024;-73
2022/10/30 08:21:35;;;;;;;26.63;13.00;;;;;;;14.43;100.00;101486.97;5094478;28;20050;-72
2022/10/30 08:24:01;;;;;;;21.10;12.68;;;;;;;14.40;100.00;101484.69;5113333;28;20035;-73
2022/10/30 08:26:26;;;;;;;24.27;12.45;;;;;;;14.45;100.00;101504.53;5094030;28;20043;-72
2022/10/30 08:28:51;;;;;;;27.45;12.63;;;;;;;14.58;100.00;101500.91;5095001;28;20074;-72
2022/10/30 08:31:16;;;;;;;28.83;14.20;;;;;;;14.80;100.00;101520.13;5113090;28;20024;-72
2022/10/30 08:33:42;;;;;;;21.57;13.83;;;;;;;14.96;100.00;101514.09;5112347;28;20041;-72
2022/10/30 08:36:07;;;;;;;24.47;13.90;;;;;;;15.35;100.00;101522.72;5112920;28;20281;-72
2022/10/30 08:38:33;;;;;;;28.60;13.75;;;;;;;15.57;100.00;101517.63;5112503;28;20603;-72
2022/10/30 08:41:00;;;;;;;16.10;12.37;;;;;;;15.78;100.00;101517.13;5112569;28;20424;-72
2022/10/30 08:43:25;;;;;;;26.67;11.07;;;;;;;15.82;100.00;101512.91;5093503;28;20282;-72
2022/10/30 08:45:51;;;;;;;27.98;13.05;;;;;;;15.65;100.00;101512.78;5112029;28;20043;-71
2022/10/30 08:48:16;;;;;;;19.75;11.00;;;;;;;15.47;100.00;101502.03;5112650;28;20077;-72
2022/10/30 08:50:42;;;;;;;20.20;11.20;;;;;;;15.44;100.00;101507.88;5112768;28;20027;-72
2022/10/30 08:53:13;;;;;;;23.38;12.05;;;;;;;15.37;100.00;101516.06;5100755;28;20270;-72
2022/10/30 08:55:38;;;;;;;28.10;12.30;;;;;;;15.34;100.00;101505.75;5094457;28;20028;-72
2022/10/30 08:58:04;;;;;;;24.50;13.43;;;;;;;15.42;100.00;101509.97;5112813;28;20464;-73
2022/10/30 09:00:29;;;;;;;23.73;12.00;;;;;;;15.55;100.00;101519.72;5112662;28;20364;-72
2022/10/30 09:02:55;;;;;;;22.45;11.40;;;;;;;15.66;100.00;101509.03;5112816;28;20024;-71
2022/10/30 09:05:20;;;;;;;23.60;11.65;;;;;;;15.71;100.00;101506.44;5111853;28;20039;-72
2022/10/30 09:07:46;;;;;;;25.38;12.65;;;;;;;15.85;100.00;101500.81;5094316;28;20066;-73
2022/10/30 09:10:12;;;;;;;26.23;12.15;;;;;;;16.14;100.00;101505.31;5093656;28;20073;-72
2022/10/30 09:12:38;;;;;;;21.08;11.90;;;;;;;16.35;100.00;101503.91;5112577;28;20511;-72
2022/10/30 09:15:04;;;;;;;21.45;11.18;;;;;;;16.62;100.00;101493.41;5112432;28;20144;-72
2022/10/30 09:20:51;;;;;;;20.02;10.93;;;;;;;17.06;100.00;101485.66;5112817;28;20047;-72
2022/10/30 09:26:38;;;;;;;22.92;10.02;;;;;;;17.87;100.00;101487.94;5112417;28;20343;-72
2022/10/30 09:29:03;;;;;;;14.30;9.10;;;;;;;17.78;100.00;101485.91;5111630;28;20067;-71
2022/10/30 09:31:29;;;;;;;20.17;11.47;;;;;;;17.60;100.00;101485.03;5112315;28;20269;-71
2022/10/30 09:33:54;;;;;;;23.87;11.00;;;;;;;17.50;100.00;101484.06;5111447;28;20356;-72
2022/10/30 09:36:19;;;;;;;24.97;9.83;;;;;;;17.52;100.00;101490.88;5112108;28;20274;-72
2022/10/30 09:38:44;;;;;;;20.03;10.23;;;;;;;17.52;100.00;101490.03;5112210;28;20345;-71
2022/10/30 09:41:16;;;;;;;17.50;9.77;;;;;;;17.51;100.00;101505.44;5097190;28;20292;-71
2022/10/30 09:47:11;;;;;;;20.00;10.40;;;;;;;17.53;100.00;101507.91;5112222;28;20058;-71
2022/10/30 09:49:45;;;;;;;26.65;10.40;;;;;;;17.53;100.00;101511.44;5093837;28;20027;-70
2022/10/30 09:52:29;;;;;;;20.40;10.80;;;;;;;17.47;100.00;101523.22;5093089;28;20088;-72
2022/10/30 09:55:14;;;;;;;22.00;11.25;;;;;;;17.36;100.00;101518.72;5094704;28;20032;-71
2022/10/30 09:57:50;;;;;;;24.55;11.55;;;;;;;17.29;100.00;101528.81;5114811;28;20040;-72
2022/10/30 10:00:19;;;;;;;19.73;10.35;;;;;;;17.30;100.00;101543.97;5115663;28;20394;-73
2022/10/30 10:02:50;;;;;;;19.65;10.80;;;;;;;17.30;100.00;101533.16;5096500;28;20154;-72
2022/10/30 10:05:21;;;;;;;20.98;10.48;;;;;;;17.26;100.00;101530.13;5097191;28;20110;-72
2022/10/30 10:11:17;;;;;;;21.45;11.13;;;;;;;17.21;100.00;101531.94;5115891;28;20133;-74
2022/10/30 10:13:54;;;;;;;26.02;9.73;;;;;;;17.43;100.00;101523.97;5115413;28;20019;-73
2022/10/30 10:16:24;;;;;;;20.75;10.30;;;;;;;17.63;100.00;101510.78;5096395;28;20139;-72
2022/10/30 10:18:57;;;;;;;28.40;10.57;;;;;;;17.82;100.00;101506.81;5097023;28;20024;-73
2022/10/30 10:21:28;;;;;;;20.42;9.25;;;;;;;17.94;100.00;101504.88;5114350;28;20056;-73
2022/10/30 10:24:00;;;;;;;25.75;9.05;;;;;;;18.07;100.00;101519.13;5115268;28;20031;-73
2022/10/30 10:26:29;;;;;;;20.27;9.55;;;;;;;18.10;100.00;101510.50;5114405;28;20647;-72
2022/10/30 10:29:07;;;;;;;20.58;10.50;;;;;;;18.15;100.00;101510.56;5114924;28;20671;-73
2022/10/30 10:31:32;;;;;;;21.73;11.65;;;;;;;18.08;100.00;101504.50;5096712;28;20484;-72
2022/10/30 10:34:16;;;;;;;23.37;10.40;;;;;;;18.03;100.00;101502.56;5114265;28;20039;-72
2022/10/30 10:40:09;;;;;;;24.13;11.70;;;;;;;18.15;100.00;101500.56;5115397;28;20042;-73
2022/10/30 10:42:45;;;;;;;29.27;12.18;;;;;;;18.22;100.00;101501.22;5096604;28;20031;-73
2022/10/30 10:45:42;;;;;;;21.08;11.25;;;;;;;18.36;100.00;101498.97;5114007;28;20048;-72
2022/10/30 10:48:22;;;;;;;27.13;12.32;;;;;;;18.53;100.00;101498.94;5096570;28;20070;-72
2022/10/30 10:51:03;;;;;;;27.45;12.20;;;;;;;18.67;100.00;101499.41;5114138;28;20126;-72
2022/10/30 10:56:50;;;;;;;23.05;11.13;;;;;;;19.32;97.23;101482.25;5114768;28;20104;-74
2022/10/30 10:59:33;;;;;;;17.55;9.15;;;;;;;19.21;97.94;101500.31;5096373;28;20093;-73
2022/10/30 11:05:10;;;;;;;17.08;8.38;;;;;;;19.19;98.54;101502.47;5115015;28;19922;-73
2022/10/30 11:07:45;;;;;;;19.40;8.73;;;;;;;19.26;97.13;101508.50;5094539;28;20059;-73
2022/10/30 11:10:13;;;;;;;22.30;8.73;;;;;;;19.13;95.64;101498.06;5114467;28;20026;-74
2022/10/30 11:16:08;;;;;;;25.55;10.98;;;;;;;18.88;100.00;101475.03;5114885;28;20176;-73
2022/10/30 11:21:56;;;;;;;21.75;10.30;;;;;;;19.01;100.00;101481.94;5114622;28;20085;-73
2022/10/30 11:37:51;;;;;;;27.02;10.52;;;;;;;19.23;98.16;101484.59;5113255;28;20112;-73
2022/10/30 11:40:22;;;;;;;16.70;9.15;;;;;;;19.16;98.52;101484.00;5114144;28;20031;-73
2022/10/30 11:43:02;;;;;;;26.92;9.40;;;;;;;19.31;96.54;101492.28;5113024;28;20047;-74
2022/10/30 11:48:53;;;;;;;21.23;9.23;;;;;;;19.98;92.52;101483.69;5114133;28;20042;-73
2022/10/30 11:51:37;;;;;;;22.90;9.52;;;;;;;19.91;93.76;101474.91;5113823;28;20092;-73
2022/10/30 11:54:04;;;;;;;26.92;9.88;;;;;;;19.58;93.37;101476.00;5094879;28;20667;-73
2022/10/30 11:56:30;;;;;;;23.50;9.73;;;;;;;19.32;95.21;101479.53;5113775;28;20031;-73
2022/10/30 12:02:19;;;;;;;21.33;9.05;;;;;;;19.25;95.98;101476.22;5114092;28;20046;-74
2022/10/30 12:08:06;;;;;;;22.55;9.70;;;;;;;19.28;96.59;101479.22;5113945;28;20096;-72
2022/10/30 12:13:54;;;;;;;22.10;10.27;;;;;;;19.19;97.71;101469.94;5113471;28;20063;-73
2022/10/30 12:19:51;;;;;;;27.75;9.30;;;;;;;19.13;98.61;101462.81;5113379;28;20521;-74
2022/10/30 12:25:38;;;;;;;25.00;9.30;;;;;;;19.19;98.46;101461.78;5113679;28;20058;-74
2022/10/30 12:31:42;;;;;;;18.88;9.98;;;;;;;19.28;98.01;101464.84;5113490;28;20080;-73
2022/10/30 12:37:33;;;;;;;31.77;12.35;;;;;;;19.22;97.18;101466.72;5113690;28;20042;-73
2022/10/30 12:43:27;;;;;;;26.88;10.65;;;;;;;19.15;98.51;101460.69;5113349;28;20756;-73
2022/10/30 12:49:38;;;;;;;27.70;10.30;;;;;;;19.55;98.53;101445.88;5113104;28;20085;-73
2022/10/30 12:58:56;;;;;;;25.10;9.75;;;;;;;21.84;87.05;101447.56;5112951;28;20050;-73
2022/10/30 13:04:47;;;;;;;31.63;11.02;;;;;;;20.66;86.74;101445.75;5113327;28;20047;-74
2022/10/30 13:10:41;;;;;;;30.45;11.05;;;;;;;20.25;94.38;101442.03;5113204;28;20099;-73
2022/10/30 13:13:14;;;;;;;23.17;9.55;;;;;;;20.29;92.76;101426.81;5094019;28;20130;-72
2022/10/30 13:19:01;;;;;;;19.48;8.60;;;;;;;20.42;90.86;101427.19;5112925;28;20043;-72
2022/10/30 13:24:59;;;;;;;28.52;9.85;;;;;;;20.09;91.24;101441.91;5112896;28;20058;-74
2022/10/30 13:31:12;;;;;;;32.08;10.15;;;;;;;19.74;94.65;101436.25;5111337;28;20042;-74
2022/10/30 13:37:25;;;;;;;22.02;9.10;;;;;;;19.40;95.59;101433.81;5112528;28;20095;-74
2022/10/30 13:43:29;;;;;;;25.67;9.52;;;;;;;19.23;99.36;101438.50;5112784;28;20039;-73
2022/10/30 13:49:31;;;;;;;28.48;8.48;;;;;;;19.15;97.21;101438.97;5112177;28;20043;-73
2022/10/30 13:55:28;;;;;;;28.17;9.15;;;;;;;19.03;97.74;101435.59;5112453;28;20115;-73
2022/10/30 14:01:22;;;;;;;24.27;9.00;;;;;;;19.02;98.86;101448.31;5112343;28;20043;-72
2022/10/30 14:07:17;;;;;;;21.25;8.82;;;;;;;19.18;94.79;101441.19;5112194;28;20042;-74
2022/10/30 14:13:15;;;;;;;19.65;9.07;;;;;;;19.17;95.67;101428.69;5112344;28;20447;-73
2022/10/30 14:15:43;;;;;;;26.65;8.68;;;;;;;19.17;97.41;101437.66;5111089;28;20182;-72
2022/10/30 14:21:40;;;;;;;20.23;8.70;;;;;;;19.12;96.94;101448.44;5112079;28;20077;-73
2022/10/30 14:27:30;;;;;;;31.63;10.15;;;;;;;19.13;95.72;101443.84;5111012;28;20144;-73
2022/10/30 14:29:56;;;;;;;27.38;8.80;;;;;;;19.09;95.44;101456.28;5093276;28;20073;-71
2022/10/30 14:35:43;;;;;;;25.33;9.35;;;;;;;19.06;95.91;101451.34;5111549;28;20078;-72